• Join FlightAware (Why Join?)
  • Login
  • US Flag 
04:05AM EDT


 

Airport Tracker/Info


-or-


 

Live Flight TrackerFlight Track Log ✈ SWA2272 ✈ 02-May-2013 ✈ KBUR - KDEN

Flight Track Log - Related Links

Times and Time Zones

All times are in EDT time to prevent confusion due to time zone crossing. See the SWA2272 flight status page for this flight to view local times or setup timezone preferences in your user account.

Time Position Orientation Groundspeed Altitude Reporting Facility
EDT Latitude Longitude Course Direction KTS MPH feet Rate Location/Type
01:47PM 34.1803 -118.3539 266° West 162 186 39,000  Level Los Angeles Center
01:48PM 34.1772 -118.4133 266° West 233 268 4,000 -15,120 Descending Los Angeles Center
01:49PM 34.2264 -118.4611 321° Northwest 228 262 7,800 3,480 Climbing Los Angeles Center
01:50PM 34.2900 -118.4517 North 254 292 11,400 2,820 Climbing Los Angeles Center
01:51PM 34.3589 -118.4058 29° Northeast 277 319 13,700 2,700 Climbing Los Angeles Center
01:52PM 34.3939 -118.3011 68° East 348 400 16,900 2,820 Climbing Los Angeles Center
01:53PM 34.4219 -118.1800 74° East 372 428 19,600 2,640 Climbing Los Angeles Center
01:54PM 34.4642 -118.0522 68° East 399 459 22,400 2,880 Climbing Los Angeles Center
01:55PM 34.5189 -117.8958 67° East 420 483 25,700 2,220 Climbing Los Angeles Center
01:56PM 34.5650 -117.7619 67° East 430 495 27,000 1,140 Climbing Los Angeles Center
01:57PM 34.6100 -117.6247 68° East 435 501 28,100 1,440 Climbing Los Angeles Center
01:58PM 34.6572 -117.4869 67° East 441 507 30,000 1,800 Climbing Los Angeles Center
01:59PM 34.7042 -117.3436 68° East 451 519 31,900 2,040 Climbing Los Angeles Center
02:00PM 34.7636 -117.1711 67° East 463 533 34,300 1,920 Climbing Los Angeles Center
02:01PM 34.8269 -117.0356 60° Northeast 466 536 35,900 1,620 Climbing Los Angeles Center
02:02PM 34.9086 -116.9175 50° Northeast 464 534 37,700 1,620 Climbing Los Angeles Center
02:03PM 34.9889 -116.8014 50° Northeast 454 522 39,600 1,440 Climbing Los Angeles Center
02:05PM 35.0947 -116.6411 51° Northeast 437 503 41,000 660 Climbing Los Angeles Center
02:06PM 35.1725 -116.5275 50° Northeast 438 504 41,000  Level Los Angeles Center
02:07PM 35.2522 -116.4122 50° Northeast 443 510 41,000  Level Los Angeles Center
02:08PM 35.3283 -116.2961 51° Northeast 438 504 41,000  Level Los Angeles Center
02:09PM 35.4042 -116.1806 51° Northeast 437 503 41,000  Level Los Angeles Center
02:10PM 35.4822 -116.0661 50° Northeast 436 502 41,000  Level Los Angeles Center
02:11PM 35.5747 -115.9289 50° Northeast 434 499 41,000  Level Los Angeles Center
02:12PM 35.6489 -115.8169 51° Northeast 429 494 41,000  Level Los Angeles Center
02:13PM 35.7253 -115.7017 51° Northeast 433 498 41,000  Level Los Angeles Center
02:14PM 35.8014 -115.5856 51° Northeast 435 501 41,000  Level Los Angeles Center
02:15PM 35.8917 -115.4478 51° Northeast 434 499 41,000  Level Los Angeles Center
02:16PM 35.9667 -115.3328 51° Northeast 433 498 41,000  Level Los Angeles Center
02:17PM 36.0408 -115.2200 51° Northeast 427 491 41,000  Level Los Angeles Center
02:18PM 36.1022 -115.0881 60° Northeast 444 511 41,000  Level Los Angeles Center
02:19PM 36.1467 -114.9433 69° East 451 519 41,000  Level Los Angeles Center
02:20PM 36.1994 -114.7683 69° East 453 521 41,000  Level Los Angeles Center
02:21PM 36.2444 -114.6228 69° East 454 522 41,000  Level Los Angeles Center
02:22PM 36.2892 -114.4758 69° East 456 525 41,000  Level Los Angeles Center
02:23PM 36.3336 -114.3286 69° East 456 525 41,000  Level Los Angeles Center
02:24PM 36.3778 -114.1800 70° East 458 527 41,000  Level Los Angeles Center
02:25PM 36.4136 -114.0611 69° East 460 529 41,000  Level Los Angeles Center
02:26PM 36.4744 -113.8533 70° East 459 528 41,000  Level Los Angeles Center
02:27PM 36.5175 -113.7072 70° East 457 526 41,000  Level Los Angeles Center
02:28PM 36.5608 -113.5611 70° East 454 522 41,000  Level Los Angeles Center
02:29PM 36.6039 -113.4150 70° East 453 521 41,000  Level Los Angeles Center
02:30PM 36.6464 -113.2692 70° East 451 519 41,000  Level Los Angeles Center
02:31PM 36.6892 -113.1206 70° East 456 525 41,000  Level Los Angeles Center
02:32PM 36.7411 -112.9433 70° East 456 525 41,000  Level Los Angeles Center
02:34PM 36.7836 -112.7944 70° East 459 528 41,000  Level Los Angeles Center
02:35PM 36.8261 -112.6444 70° East 461 531 41,000  Level Los Angeles Center
02:36PM 36.8689 -112.4942 70° East 462 532 41,000  Level Los Angeles Center
02:37PM 36.9197 -112.3142 70° East 463 533 41,000  Level Los Angeles Center
02:38PM 36.9617 -112.1631 71° East 462 532 41,000  Level Los Angeles Center
02:38PM 36.9886 -112.0711 70° East 465 535 41,000  Level Denver Center
02:39PM 37.0308 -111.9197 71° East 464 534 41,000  Level Denver Center
02:40PM 37.0736 -111.7681 70° East 465 535 41,000  Level Denver Center
02:41PM 37.1147 -111.6161 71° East 464 534 41,000  Level Denver Center
02:42PM 37.1533 -111.4683 72° East 456 525 41,000  Level Denver Center
02:43PM 37.1931 -111.3189 72° East 454 522 41,000  Level Denver Center
02:45PM 37.2422 -111.1406 71° East 452 520 41,000  Level Denver Center
02:46PM 37.2900 -110.9606 72° East 454 522 41,000  Level Denver Center
02:47PM 37.3297 -110.8117 71° East 453 521 41,000  Level Denver Center
02:48PM 37.3689 -110.6619 72° East 452 520 41,000  Level Denver Center
02:49PM 37.4078 -110.5136 72° East 449 517 41,000  Level Denver Center
02:50PM 37.4461 -110.3644 72° East 449 517 41,000  Level Denver Center
02:51PM 37.4906 -110.1914 72° East 449 517 41,000  Level Denver Center
02:52PM 37.5289 -110.0475 71° East 452 520 41,000  Level Denver Center
02:53PM 37.5731 -109.8756 72° East 460 529 41,000  Level Denver Center
02:54PM 37.6100 -109.7269 73° East 463 533 41,000  Level Denver Center
02:55PM 37.6531 -109.5561 72° East 458 527 41,000  Level Denver Center
02:56PM 37.6903 -109.4075 72° East 462 532 41,000  Level Denver Center
02:57PM 37.7272 -109.2594 72° East 461 531 41,000  Level Denver Center
02:58PM 37.7708 -109.0847 72° East 466 536 41,000  Level Denver Center
02:59PM 37.8075 -108.9350 73° East 466 536 41,000  Level Denver Center
03:00PM 37.8417 -108.7569 76° East 466 536 41,000  Level Denver Center
03:01PM 37.8714 -108.6042 76° East 467 537 41,000  Level Denver Center
03:02PM 37.9056 -108.4222 77° East 473 544 41,000  Level Denver Center
03:03PM 37.9344 -108.2692 76° East 470 541 41,000  Level Denver Center
03:04PM 37.9636 -108.1139 77° East 472 543 41,000  Level Denver Center
03:05PM 37.9964 -107.9328 77° East 475 547 41,000  Level Denver Center
03:06PM 38.0347 -107.7272 77° East 468 539 41,000  Level Denver Center
03:07PM 38.0631 -107.5725 77° East 472 543 41,000  Level Denver Center
03:08PM 38.0933 -107.4033 77° East 472 543 41,000  Level Denver Center
03:10PM 38.1208 -107.2486 77° East 470 541 41,000  Level Denver Center
03:11PM 38.1536 -107.0669 77° East 469 540 41,000  Level Denver Center
03:12PM 38.2161 -106.9322 59° Northeast 440 506 41,000  Level Denver Center
03:13PM 38.2972 -106.8058 51° Northeast 434 499 41,000 -180 Level Denver Center
03:14PM 38.3692 -106.6944 50° Northeast 434 499 40,700 -660 Descending Denver Center
03:15PM 38.4464 -106.5747 51° Northeast 436 502 39,700 -960 Descending Denver Center
03:16PM 38.5242 -106.4556 50° Northeast 439 505 38,800 -960 Descending Denver Center
03:17PM 38.6008 -106.3361 51° Northeast 437 503 37,800 -1,020 Descending Denver Center
03:18PM 38.6919 -106.1958 50° Northeast 430 495 36,700 -1,080 Descending Denver Center
03:19PM 38.7628 -106.0847 51° Northeast 432 497 35,600 -2,340 Descending Denver Center
03:20PM 38.8483 -105.9497 51° Northeast 435 501 31,900 -2,820 Descending Denver Center
03:21PM 38.9189 -105.8400 50° Northeast 428 493 29,900 -2,280 Descending Denver Center
03:22PM 38.9975 -105.7169 51° Northeast 410 472 27,300 -2,700 Descending Denver Center
03:23PM 39.0611 -105.6169 51° Northeast 390 449 24,400 -3,120 Descending Denver Center
03:24PM 39.1342 -105.5003 51° Northeast 379 436 21,000 -2,880 Descending Denver Center
03:25PM 39.1969 -105.4036 50° Northeast 370 426 18,600 -1,380 Descending Denver Center
03:26PM 39.2522 -105.3094 53° Northeast 297 342 18,200 -360 Descending Denver Center
03:27PM 39.2775 -105.2089 72° East 296 341 17,900 -1,020 Descending Denver Center
03:28PM 39.2986 -105.1008 76° East 309 356 16,200 -2,040 Descending Denver Center
03:29PM 39.3553 -105.0072 52° Northeast 307 353 13,800 -1,620 Descending Denver Center
03:30PM 39.4044 -104.9192 54° Northeast 301 346 13,000 -960 Descending Denver Center
03:31PM 39.4569 -104.8319 52° Northeast 289 333 11,900 -1,140 Descending Denver Center
03:32PM 39.5081 -104.7536 50° Northeast 288 331 10,700 -960 Descending Denver Center
03:33PM 39.5750 -104.7036 30° Northeast 280 322 10,000 -840 Descending Denver Center
03:34PM 39.6553 -104.6908 North 280 322 9,000 -900 Descending Denver Center
03:35PM 39.7231 -104.6892 North 250 288 8,200 -1,020 Descending Denver Center
03:36PM 39.7833 -104.6883 North 207 238 6,900 -1,080 Descending Denver Center
03:37PM 39.8253 -104.6875 North 159 183 6,100 -840 Descending Denver Center
03:38PM 39.8664 -104.6878 360° North 141 162 5,300 -780 Descending Denver Center
03:40PM 39.8617 -104.6732 113° Southeast  Level Estimated
03:47PM 39.8617 -104.6732 142° Southeast  Level Estimated
03:48PM 39.8617 -104.6732 142° Southeast  Level Estimated
03:49PM 39.8617 -104.6732 142° Southeast  Level Estimated